Time;durP1;ratioP1;P1;durP2;ratioP2;P2;SDS_P1;SDS_P2;PMS_P1;PMS_P2;Temp;Humidity;BMP_temperature;BMP_pressure;BME280_temperature;BME280_humidity;BME280_pressure;Samples;Min_cycle;Max_cycle;Signal;HPM_P1;HPM_P2
2022/08/06 05:17:15;;;;;;;;;0.00;0.00;;;;;18.16;42.88;102411.69;2383026;28;68811;-78
2022/08/06 05:18:33;;;;;;;;;2.00;2.00;;;;;18.16;42.77;102417.00;2394543;28;45494;-78
2022/08/06 05:19:50;;;;;;;;;1.00;1.00;;;;;18.18;43.00;102414.25;2390015;28;44547;-78
2022/08/06 05:21:02;;;;;;;;;1.00;1.00;;;;;18.19;42.65;102414.25;2386952;28;45512;-78
2022/08/06 05:22:16;;;;;;;;;0.00;0.00;;;;;18.18;42.91;102412.47;2388419;28;45560;-79
2022/08/06 05:23:39;;;;;;;;;1.00;1.00;;;;;18.17;42.56;102418.75;2388879;28;45487;-78
2022/08/06 05:24:49;;;;;;;;;0.75;0.75;;;;;18.16;42.73;102413.47;2378023;28;45291;-78
2022/08/06 05:26:00;;;;;;;;;1.25;1.00;;;;;18.10;42.80;102414.56;2393673;28;45496;-79
2022/08/06 05:27:11;;;;;;;;;2.50;2.00;;;;;18.07;42.70;102418.22;2385118;28;45369;-79
2022/08/06 05:28:21;;;;;;;;;0.75;0.75;;;;;18.03;43.06;102419.25;2381813;28;48031;-78
2022/08/06 05:29:32;;;;;;;;;1.25;1.25;;;;;18.03;42.78;102421.03;2385295;28;45161;-78
2022/08/06 05:30:48;;;;;;;;;2.75;2.00;;;;;18.02;42.90;102425.50;2385369;28;45343;-78
2022/08/06 05:32:01;;;;;;;;;1.00;1.00;;;;;18.03;43.22;102426.34;2374598;28;45355;-78
2022/08/06 05:33:22;;;;;;;;;0.25;0.00;;;;;18.03;42.97;102426.34;2386817;28;45517;-78
2022/08/06 05:34:33;;;;;;;;;1.25;0.25;;;;;18.00;42.61;102424.72;2392310;28;45211;-79
2022/08/06 05:35:43;;;;;;;;;1.00;1.00;;;;;17.97;43.19;102423.03;2389697;28;45502;-78
2022/08/06 05:36:54;;;;;;;;;1.00;1.00;;;;;17.96;43.19;102420.41;2389735;28;45175;-79
2022/08/06 05:38:04;;;;;;;;;1.75;1.75;;;;;17.96;42.89;102428.38;2386458;28;46169;-78
2022/08/06 05:39:14;;;;;;;;;1.25;1.00;;;;;17.93;43.25;102423.19;2394125;28;45237;-79
2022/08/06 05:40:25;;;;;;;;;1.00;1.00;;;;;17.90;42.84;102426.84;2386219;28;46383;-79
2022/08/06 05:41:35;;;;;;;;;1.00;1.00;;;;;17.89;43.10;102425.09;2384406;28;44776;-79
2022/08/06 05:42:45;;;;;;;;;1.75;1.75;;;;;17.90;43.89;102426.84;2384480;28;45355;-80
2022/08/06 05:43:58;;;;;;;;;1.75;1.75;;;;;17.92;43.07;102421.47;2390910;28;45250;-79
2022/08/06 05:45:12;;;;;;;;;0.75;0.75;;;;;17.93;43.99;102426.72;2388709;28;45543;-81
2022/08/06 05:46:23;;;;;;;;;1.00;1.00;;;;;17.97;43.20;102427.47;2383754;28;45289;-80
2022/08/06 05:47:37;;;;;;;;;1.00;1.00;;;;;18.00;43.83;102424.72;2386898;28;46520;-80
2022/08/06 05:49:17;;;;;;;;;3.00;1.00;;;;;18.05;43.38;102429.84;2394033;28;44715;-80
2022/08/06 05:50:34;;;;;;;;;2.00;2.00;;;;;18.06;43.20;102431.56;2389907;28;46209;-80
2022/08/06 05:51:55;;;;;;;;;3.00;1.00;;;;;18.08;43.99;102429.72;2384200;28;45480;-80
2022/08/06 05:53:13;;;;;;;;;1.50;0.50;;;;;18.08;43.41;102424.41;2382291;28;46550;-79
2022/08/06 05:54:32;;;;;;;;;0.00;0.00;;;;;18.09;42.97;102424.34;2393681;28;45218;-79
2022/08/06 05:55:55;;;;;;;;;0.00;0.00;;;;;18.09;42.87;102424.34;2391673;28;48423;-79
2022/08/06 05:57:28;;;;;;;;;2.00;1.00;;;;;18.04;43.60;102426.31;2374733;28;45251;-79
2022/08/06 05:58:46;;;;;;;;;1.00;1.00;;;;;18.02;43.07;102427.31;2374639;28;47350;-79
2022/08/06 06:00:09;;;;;;;;;1.00;1.00;;;;;17.97;42.85;102433.66;2385175;28;45604;-79
2022/08/06 06:01:21;;;;;;;;;3.50;1.50;;;;;17.96;43.21;102439.91;2374169;28;47926;-79
2022/08/06 06:02:32;;;;;;;;;2.75;1.00;;;;;17.93;43.19;102439.13;2381373;28;44743;-79
2022/08/06 06:03:44;;;;;;;;;2.00;0.50;;;;;17.89;42.88;102430.41;2393473;28;46157;-80
2022/08/06 06:04:55;;;;;;;;;3.50;2.00;;;;;17.82;42.93;102440.44;2393980;28;45198;-79
2022/08/06 06:06:05;;;;;;;;;1.00;1.00;;;;;17.75;43.16;102429.13;2393130;28;47899;-78
2022/08/06 06:07:16;;;;;;;;;1.00;1.00;;;;;17.75;43.76;102425.63;2387043;28;46051;-79
2022/08/06 06:08:27;;;;;;;;;1.25;1.00;;;;;17.74;43.63;102438.03;2382658;28;48335;-79
2022/08/06 06:09:38;;;;;;;;;1.00;1.00;;;;;17.71;43.63;102430.16;2381430;28;45272;-79
2022/08/06 06:10:50;;;;;;;;;1.00;1.00;;;;;17.70;43.91;102436.44;2393423;28;45303;-79
2022/08/06 06:12:01;;;;;;;;;1.00;1.00;;;;;17.70;43.67;102436.44;2390359;28;45479;-82
2022/08/06 06:13:13;;;;;;;;;1.00;1.00;;;;;17.71;43.86;102439.94;2393448;28;46624;-82
2022/08/06 06:14:39;;;;;;;;;1.00;1.00;;;;;17.69;43.61;102445.31;2390769;28;44819;-81
2022/08/06 06:16:29;;;;;;;;;0.25;0.25;;;;;17.68;44.25;102438.25;2380485;28;48690;-81
2022/08/06 06:17:52;;;;;;;;;2.00;2.00;;;;;17.70;43.67;102436.44;2391956;28;45317;-82
2022/08/06 06:19:27;;;;;;;;;2.00;1.00;;;;;17.70;43.70;102436.44;2393412;28;46444;-87
2022/08/06 06:21:01;;;;;;;;;1.25;0.75;;;;;17.70;43.69;102436.44;2384165;28;45227;-80
2022/08/06 06:22:21;;;;;;;;;0.50;0.50;;;;;17.73;44.24;102438.09;2385386;28;45615;-79
2022/08/06 06:23:48;;;;;;;;;2.75;1.00;;;;;17.75;44.28;102438.91;2381039;28;45303;-80
2022/08/06 06:25:10;;;;;;;;;2.25;1.00;;;;;17.78;43.72;102430.81;2389378;28;45527;-80
2022/08/06 06:26:32;;;;;;;;;1.50;1.50;;;;;17.81;43.77;102435.16;2389640;28;44791;-80
2022/08/06 06:27:53;;;;;;;;;2.00;0.50;;;;;17.85;44.01;102444.75;2383640;28;47321;-80
2022/08/06 06:29:16;;;;;;;;;1.00;1.00;;;;;17.90;44.00;102442.81;2388014;28;45258;-80
2022/08/06 06:30:46;;;;;;;;;2.50;1.00;;;;;17.93;44.15;102437.34;2389986;28;45457;-80
2022/08/06 06:32:00;;;;;;;;;1.00;1.00;;;;;17.96;43.78;102437.25;2384379;28;44825;-79
2022/08/06 06:33:33;;;;;;;;;3.00;1.50;;;;;18.03;44.00;102442.31;2377321;28;47479;-79
2022/08/06 06:34:58;;;;;;;;;2.00;2.00;;;;;18.06;43.68;102444.88;2352223;29;45400;-79
2022/08/06 06:36:23;;;;;;;;;1.00;1.00;;;;;18.06;43.77;102443.09;2376773;28;48334;-80
2022/08/06 06:38:14;;;;;;;;;2.50;1.00;;;;;18.09;44.05;102436.78;2381687;28;45513;-80
2022/08/06 06:39:39;;;;;;;;;1.00;1.00;;;;;18.14;43.76;102442.81;2382940;28;45479;-80
2022/08/06 06:41:20;;;;;;;;;1.00;1.00;;;;;18.23;43.62;102438.94;2392854;28;45344;-79
2022/08/06 06:42:40;;;;;;;;;0.75;0.75;;;;;18.27;43.18;102439.69;2389601;28;46825;-81
2022/08/06 06:44:03;;;;;;;;;0.25;0.25;;;;;18.30;43.59;102443.09;2389955;28;44611;-82
2022/08/06 06:45:19;;;;;;;;;1.00;1.00;;;;;18.36;44.03;102446.44;2384163;28;45306;-82
2022/08/06 06:46:49;;;;;;;;;3.00;1.75;;;;;18.44;43.78;102452.34;2382833;28;45339;-81
2022/08/06 06:48:03;;;;;;;;;1.00;1.00;;;;;18.51;44.25;102444.97;2383481;28;47305;-81
2022/08/06 06:49:22;;;;;;;;;1.00;1.00;;;;;18.58;44.11;102453.59;2380129;28;44710;-81
2022/08/06 06:50:39;;;;;;;;;1.25;1.00;;;;;18.67;43.61;102453.22;2387317;28;45716;-81
2022/08/06 06:51:55;;;;;;;;;0.00;0.00;;;;;18.74;44.11;102451.19;2386579;28;45287;-81
2022/08/06 06:53:06;;;;;;;;;1.00;1.00;;;;;18.80;42.55;102450.06;2383726;28;46670;-82
2022/08/06 06:54:24;;;;;;;;;2.00;1.00;;;;;18.82;43.08;102458.84;2389044;28;45226;-82
2022/08/06 06:55:42;;;;;;;;;2.00;1.00;;;;;18.86;42.57;102455.16;2382949;28;47392;-81
2022/08/06 06:56:56;;;;;;;;;2.00;0.75;;;;;18.91;43.01;102454.94;2385821;28;45243;-77
2022/08/06 06:58:10;;;;;;;;;1.50;1.00;;;;;18.92;42.30;102459.34;2383332;28;47345;-81
2022/08/06 06:59:43;;;;;;;;;1.00;1.00;;;;;18.89;42.06;102455.00;2383415;28;45345;-81
2022/08/06 07:00:55;;;;;;;;;1.00;1.00;;;;;18.86;42.30;102463.13;2384377;28;45547;-81
2022/08/06 07:02:12;;;;;;;;;1.75;1.75;;;;;18.85;42.58;102458.72;2389260;28;45393;-81
2022/08/06 07:03:24;;;;;;;;;0.75;0.75;;;;;18.84;42.51;102459.69;2392652;28;47276;-81
2022/08/06 07:04:37;;;;;;;;;2.00;1.00;;;;;18.84;42.35;102467.66;2391895;28;45268;-81
2022/08/06 07:05:49;;;;;;;;;1.50;1.50;;;;;18.84;42.55;102465.00;2382005;28;47517;-81
2022/08/06 07:07:03;;;;;;;;;0.50;0.50;;;;;18.86;42.97;102464.00;2382681;28;44746;-80
2022/08/06 07:08:19;;;;;;;;;2.25;1.00;;;;;18.91;43.02;102461.16;2378857;28;48088;-80
2022/08/06 07:09:33;;;;;;;;;0.25;0.25;;;;;18.97;42.04;102460.00;2387039;28;45331;-80
2022/08/06 07:10:45;;;;;;;;;1.00;1.00;;;;;18.99;42.62;102452.81;2390934;28;46590;-80
2022/08/06 07:11:57;;;;;;;;;2.00;1.00;;;;;19.03;42.05;102459.78;2384237;28;45241;-80
2022/08/06 07:13:10;;;;;;;;;1.00;1.00;;;;;19.05;41.73;102454.38;2385645;28;45475;-80
2022/08/06 07:14:23;;;;;;;;;1.00;1.00;;;;;19.08;42.32;102468.44;2382598;28;45332;-80
2022/08/06 07:15:35;;;;;;;;;1.00;1.00;;;;;19.14;42.47;102463.78;2386172;28;46591;-80
2022/08/06 07:16:48;;;;;;;;;1.00;1.00;;;;;19.17;41.72;102467.22;2389167;28;45491;-81
2022/08/06 07:18:01;;;;;;;;;0.25;0.25;;;;;19.21;41.76;102462.63;2385677;28;45293;-80
2022/08/06 07:19:12;;;;;;;;;2.00;1.00;;;;;19.23;42.04;102458.97;2391605;28;45235;-80
2022/08/06 07:20:29;;;;;;;;;1.00;1.00;;;;;19.26;41.88;102465.09;2393275;28;45396;-80
2022/08/06 07:21:41;;;;;;;;;1.00;1.00;;;;;19.30;41.74;102472.03;2384286;28;45341;-80
2022/08/06 07:22:54;;;;;;;;;2.75;1.00;;;;;19.32;41.29;102472.81;2388801;28;45658;-78
2022/08/06 07:24:06;;;;;;;;;1.50;1.00;;;;;19.34;41.61;102466.50;2393390;28;45294;-79
2022/08/06 07:25:17;;;;;;;;;0.00;0.00;;;;;19.39;41.93;102465.41;2376121;28;47099;-79
2022/08/06 07:26:29;;;;;;;;;0.25;0.00;;;;;19.42;41.43;102463.50;2381162;28;45468;-79
2022/08/06 07:27:44;;;;;;;;;1.50;1.00;;;;;19.48;41.74;102477.50;2385303;28;45521;-78
2022/08/06 07:28:56;;;;;;;;;1.00;1.00;;;;;19.52;42.09;102469.31;2394609;28;44623;-79
2022/08/06 07:30:07;;;;;;;;;1.00;1.00;;;;;19.56;41.28;102478.88;2395030;28;45506;-76
2022/08/06 07:31:18;;;;;;;;;1.00;1.00;;;;;19.61;41.70;102476.03;2386981;28;45327;-76
2022/08/06 07:32:29;;;;;;;;;0.00;0.00;;;;;19.66;39.54;102483.81;2387917;28;45527;-76
2022/08/06 07:33:44;;;;;;;;;0.25;0.00;;;;;19.70;39.93;102480.09;2387846;28;44652;-77
2022/08/06 07:34:54;;;;;;;;;1.00;0.75;;;;;19.73;41.00;102479.94;2385520;28;46313;-77
2022/08/06 07:36:06;;;;;;;;;1.00;1.00;;;;;19.79;40.70;102474.34;2389996;28;44568;-78
2022/08/06 07:37:21;;;;;;;;;0.75;0.75;;;;;19.86;40.91;102474.06;2387958;28;46837;-77
2022/08/06 07:38:34;;;;;;;;;1.00;1.00;;;;;19.91;39.96;102472.06;2385471;28;45400;-77
2022/08/06 07:39:46;;;;;;;;;2.00;1.00;;;;;19.96;40.10;102474.50;2385369;28;45143;-77
2022/08/06 07:41:01;;;;;;;;;1.00;1.00;;;;;19.98;39.48;102478.84;2389889;28;45339;-77
2022/08/06 07:42:14;;;;;;;;;0.00;0.00;;;;;20.02;39.62;102479.56;2394349;28;46102;-77
2022/08/06 07:43:28;;;;;;;;;2.00;0.75;;;;;20.04;40.47;102482.16;2390374;28;45223;-77
2022/08/06 07:44:43;;;;;;;;;0.50;0.50;;;;;20.06;39.88;102480.28;2390749;28;45397;-77
2022/08/06 07:45:58;;;;;;;;;1.25;0.00;;;;;20.11;39.65;102479.19;2394123;28;45281;-80
2022/08/06 07:47:12;;;;;;;;;1.00;1.00;;;;;20.12;39.49;102474.72;2382177;28;46711;-78
2022/08/06 07:48:31;;;;;;;;;1.25;1.25;;;;;20.19;40.16;102485.97;2386794;28;45419;-78
2022/08/06 07:49:45;;;;;;;;;0.00;0.00;;;;;20.21;39.52;102474.28;2379870;28;46937;-80
2022/08/06 07:50:58;;;;;;;;;0.00;0.00;;;;;20.24;39.96;102479.50;2376651;28;45250;-80
2022/08/06 07:52:15;;;;;;;;;0.00;0.00;;;;;20.29;39.77;102476.59;2375077;28;48339;-79
2022/08/06 07:53:26;;;;;;;;;0.00;0.00;;;;;20.34;38.79;102476.38;2384709;28;45469;-80
2022/08/06 07:54:38;;;;;;;;;0.00;0.00;;;;;20.37;39.08;102470.03;2390818;28;46171;-79
2022/08/06 07:55:49;;;;;;;;;1.00;0.00;;;;;20.38;39.25;102475.28;2383848;28;45346;-80
2022/08/06 07:56:59;;;;;;;;;1.50;1.00;;;;;20.39;38.89;102466.34;2385226;28;45681;-79
2022/08/06 07:58:11;;;;;;;;;0.00;0.00;;;;;20.42;38.92;102473.34;2391778;28;44796;-80
2022/08/06 07:59:24;;;;;;;;;0.00;0.00;;;;;20.44;40.15;102467.00;2383364;28;48110;-79
2022/08/06 08:00:35;;;;;;;;;2.25;0.00;;;;;20.45;39.36;102468.72;2383426;28;45399;-79
2022/08/06 08:01:45;;;;;;;;;1.00;1.00;;;;;20.52;38.83;102476.44;2387135;28;45526;-79
2022/08/06 08:07:25;;;;;;;;;0.25;0.00;;;;;20.50;38.12;102480.97;2388783;28;45378;-78
2022/08/06 08:08:36;;;;;;;;;0.50;0.00;;;;;20.49;38.05;102479.25;2394102;28;45409;-78
2022/08/06 08:09:48;;;;;;;;;1.00;0.50;;;;;20.50;38.75;102479.16;2391777;28;46973;-77
2022/08/06 08:10:58;;;;;;;;;1.00;1.00;;;;;20.52;38.18;102479.13;2388455;28;45525;-77
2022/08/06 08:12:13;;;;;;;;;1.75;0.50;;;;;20.53;38.21;102475.50;2393832;28;45355;-78
2022/08/06 08:13:25;;;;;;;;;1.00;1.00;;;;;20.56;38.31;102486.91;2393427;28;45349;-78
2022/08/06 08:14:36;;;;;;;;;1.75;1.00;;;;;20.57;38.56;102480.59;2393764;28;45222;-78
2022/08/06 08:15:48;;;;;;;;;0.00;0.00;;;;;20.61;38.45;102486.69;2393110;28;44727;-77
2022/08/06 08:16:58;;;;;;;;;0.00;0.00;;;;;20.61;38.05;102478.66;2382839;28;47322;-77
2022/08/06 08:18:09;;;;;;;;;0.00;0.00;;;;;20.64;37.32;102474.97;2377570;28;45547;-77
2022/08/06 08:19:22;;;;;;;;;0.00;0.00;;;;;20.66;37.74;102479.31;2383138;28;45787;-78
2022/08/06 08:20:34;;;;;;;;;1.00;1.00;;;;;20.72;38.49;102477.28;2392822;28;45238;-77
2022/08/06 08:21:45;;;;;;;;;0.00;0.00;;;;;20.74;38.10;102475.41;2394443;28;46308;-77
2022/08/06 08:22:55;;;;;;;;;0.75;0.00;;;;;20.76;37.72;102478.84;2394759;28;45300;-79
2022/08/06 08:24:06;;;;;;;;;0.75;0.00;;;;;20.79;37.38;102476.03;2393379;28;45205;-77
2022/08/06 08:25:17;;;;;;;;;0.50;0.00;;;;;20.83;37.97;102477.63;2385101;28;45457;-77
2022/08/06 08:26:27;;;;;;;;;2.00;0.00;;;;;20.87;37.96;102481.84;2384177;28;46488;-77
2022/08/06 08:27:38;;;;;;;;;0.50;0.50;;;;;20.92;36.30;102484.28;2385901;28;45748;-77
2022/08/06 08:28:49;;;;;;;;;0.00;0.00;;;;;20.95;37.21;102483.28;2386603;28;46261;-76
2022/08/06 08:29:59;;;;;;;;;0.00;0.00;;;;;20.96;37.65;102477.88;2393961;28;45353;-76
2022/08/06 08:31:13;;;;;;;;;0.00;0.00;;;;;20.99;37.58;102488.41;2388460;28;46403;-77
2022/08/06 08:32:24;;;;;;;;;0.25;0.25;;;;;21.00;36.38;102481.25;2385457;28;45168;-76
2022/08/06 08:33:34;;;;;;;;;0.50;0.50;;;;;21.02;37.46;102480.25;2374997;28;47250;-77
2022/08/06 08:34:44;;;;;;;;;1.00;0.00;;;;;21.03;37.19;102483.81;2384469;28;45208;-78
2022/08/06 08:35:56;;;;;;;;;0.00;0.00;;;;;21.06;37.33;102480.13;2391981;28;46868;-76
2022/08/06 08:37:06;;;;;;;;;0.00;0.00;;;;;21.09;36.66;102467.44;2388373;28;45450;-76
2022/08/06 08:38:16;;;;;;;;;1.00;0.00;;;;;21.13;36.33;102481.53;2380531;28;46231;-76
2022/08/06 08:39:30;;;;;;;;;1.00;1.00;;;;;21.14;36.64;102476.09;2373604;28;45180;-78
2022/08/06 08:40:42;;;;;;;;;0.00;0.00;;;;;21.19;36.87;102475.00;2378930;28;46697;-80
2022/08/06 08:42:06;;;;;;;;;0.75;0.50;;;;;21.22;36.31;102472.16;2386957;28;45227;-80
2022/08/06 08:43:30;;;;;;;;;0.00;0.00;;;;;21.24;36.73;102467.59;2386119;28;45542;-80
2022/08/06 08:44:41;;;;;;;;;0.00;0.00;;;;;21.31;36.59;102474.38;2378463;28;45389;-80
2022/08/06 08:45:53;;;;;;;;;0.50;0.50;;;;;21.34;36.97;102457.31;2384776;28;45476;-80
2022/08/06 08:47:07;;;;;;;;;0.00;0.00;;;;;21.39;35.71;102465.94;2388824;28;45267;-81
2022/08/06 08:48:22;;;;;;;;;2.00;0.00;;;;;21.39;32.65;102471.31;2386275;28;45382;-81
2022/08/06 08:50:05;;;;;;;;;2.00;0.00;;;;;21.38;34.24;102458.03;2390769;28;45197;-81
2022/08/06 08:51:16;;;;;;;;;0.00;0.00;;;;;21.36;35.85;102456.28;2359348;29;47347;-80
2022/08/06 08:52:34;;;;;;;;;1.00;1.00;;;;;21.41;34.23;102465.91;2387374;28;45499;-81
2022/08/06 08:53:51;;;;;;;;;0.00;0.00;;;;;21.43;35.01;102459.53;2375102;28;46675;-81
2022/08/06 08:55:04;;;;;;;;;0.00;0.00;;;;;21.45;34.85;102459.44;2382771;28;45232;-80
2022/08/06 08:56:16;;;;;;;;;0.00;0.00;;;;;21.48;35.31;102456.59;2389151;28;46608;-81
2022/08/06 08:57:27;;;;;;;;;0.00;0.00;;;;;21.54;35.69;102455.41;2394038;28;45250;-81
2022/08/06 08:58:40;;;;;;;;;0.00;0.00;;;;;21.57;35.37;102457.91;2385030;28;46607;-80
2022/08/06 08:59:51;;;;;;;;;0.00;0.00;;;;;21.61;35.15;102455.97;2381630;28;44850;-81
2022/08/06 09:01:01;;;;;;;;;2.00;0.00;;;;;21.67;35.39;102458.28;2386478;28;45276;-81
2022/08/06 09:02:13;;;;;;;;;0.00;0.00;;;;;21.72;35.26;102461.59;2383424;28;45284;-81
2022/08/06 09:03:24;;;;;;;;;0.75;0.75;;;;;21.76;35.71;102455.13;2387394;28;45528;-80
2022/08/06 09:04:35;;;;;;;;;0.00;0.00;;;;;21.82;34.81;102453.94;2394350;28;44651;-81
2022/08/06 09:05:45;;;;;;;;;0.00;0.00;;;;;21.86;34.52;102452.84;2387564;28;45239;-81
2022/08/06 09:06:56;;;;;;;;;1.00;0.00;;;;;21.89;34.42;102452.69;2388876;28;44601;-82
2022/08/06 09:08:09;;;;;;;;;2.00;0.00;;;;;21.91;34.87;102456.13;2391929;28;46289;-80
2022/08/06 09:09:21;;;;;;;;;0.00;0.00;;;;;21.95;34.15;102461.31;2391861;28;44754;-81
2022/08/06 09:10:31;;;;;;;;;3.00;0.00;;;;;21.98;34.24;102451.31;2384972;28;45514;-81
2022/08/06 09:11:42;;;;;;;;;2.00;0.00;;;;;21.99;34.04;102453.03;2393928;28;45226;-81
2022/08/06 09:12:52;;;;;;;;;1.25;0.50;;;;;22.01;34.80;102456.50;2390417;28;45298;-82
2022/08/06 09:14:07;;;;;;;;;0.00;0.00;;;;;22.05;33.50;102456.34;2385105;28;45158;-82
2022/08/06 09:15:19;;;;;;;;;0.00;0.00;;;;;22.06;33.34;102452.69;2388777;28;47468;-81
2022/08/06 09:16:34;;;;;;;;;0.00;0.00;;;;;22.09;33.43;102453.41;2403510;28;45313;-81
2022/08/06 09:17:47;;;;;;;;;0.00;0.00;;;;;22.10;34.96;102454.28;2385955;28;46431;-81
2022/08/06 09:18:57;;;;;;;;;0.00;0.00;;;;;22.15;33.93;102460.22;2393526;28;44722;-80
2022/08/06 09:20:08;;;;;;;;;0.00;0.00;;;;;22.21;34.27;102461.69;2388746;28;45476;-80
2022/08/06 09:21:19;;;;;;;;;1.50;0.00;;;;;22.24;33.94;102458.84;2392730;28;46007;-81
2022/08/06 09:22:29;;;;;;;;;0.00;0.00;;;;;22.29;33.12;102458.59;2393907;28;45344;-81
2022/08/06 09:23:39;;;;;;;;;0.00;0.00;;;;;22.31;33.12;102468.28;2384661;28;45240;-81
2022/08/06 09:24:50;;;;;;;;;0.00;0.00;;;;;22.33;33.57;102460.13;2387454;28;45343;-81
2022/08/06 09:26:04;;;;;;;;;0.00;0.00;;;;;22.34;32.89;102464.56;2392332;28;45421;-80
2022/08/06 09:27:17;;;;;;;;;0.50;0.00;;;;;22.37;33.24;102467.06;2390547;28;45482;-81
2022/08/06 09:28:44;;;;;;;;;0.00;0.00;;;;;22.39;33.64;102459.81;2385489;28;45331;-80
2022/08/06 09:29:58;;;;;;;;;0.00;0.00;;;;;22.43;32.79;102460.47;2387229;28;46337;-81
2022/08/06 09:31:14;;;;;;;;;0.00;0.00;;;;;22.45;32.19;102467.47;2384453;28;45259;-81
2022/08/06 09:32:44;;;;;;;;;0.00;0.00;;;;;22.47;32.43;102468.25;2384951;28;46235;-81
2022/08/06 09:33:56;;;;;;;;;2.00;0.00;;;;;22.52;33.28;102470.66;2392803;28;44647;-80
2022/08/06 09:35:20;;;;;;;;;0.00;0.00;;;;;22.52;33.62;102462.63;2388903;28;45509;-80
2022/08/06 09:36:41;;;;;;;;;0.00;0.00;;;;;22.57;32.44;102462.41;2394294;28;45238;-80
2022/08/06 09:38:01;;;;;;;;;0.00;0.00;;;;;22.59;32.97;102461.31;2392110;28;48246;-80
2022/08/06 09:39:12;;;;;;;;;0.00;0.00;;;;;22.62;32.74;102470.16;2393159;28;45328;-80
2022/08/06 09:40:22;;;;;;;;;0.00;0.00;;;;;22.64;32.44;102466.44;2390219;28;45202;-80
2022/08/06 09:41:34;;;;;;;;;0.00;0.00;;;;;22.66;32.42;102461.00;2394352;28;45235;-81
2022/08/06 09:42:48;;;;;;;;;0.00;0.00;;;;;22.67;31.31;102468.94;2383715;28;47182;-81
2022/08/06 09:43:58;;;;;;;;;0.00;0.00;;;;;22.65;31.51;102469.97;2387423;28;45283;-81
2022/08/06 09:45:13;;;;;;;;;0.00;0.00;;;;;22.63;31.51;102467.38;2391338;28;45352;-81
2022/08/06 09:46:44;;;;;;;;;1.00;0.00;;;;;22.63;30.43;102467.38;2392972;28;45388;-81
2022/08/06 09:48:07;;;;;;;;;1.00;0.00;;;;;22.65;31.59;102467.28;2382779;28;47983;-80
2022/08/06 09:49:18;;;;;;;;;0.00;0.00;;;;;22.65;31.12;102460.13;2385326;28;45263;-81
2022/08/06 09:50:42;;;;;;;;;0.00;0.00;;;;;22.64;31.63;102461.09;2384142;28;45301;-80
2022/08/06 09:52:16;;;;;;;;;0.00;0.00;;;;;22.65;30.75;102459.25;2384856;28;44624;-81
2022/08/06 09:53:26;;;;;;;;;0.00;0.00;;;;;22.64;30.20;102457.53;2393637;28;45551;-81
2022/08/06 09:54:37;;;;;;;;;0.00;0.00;;;;;22.62;31.39;102452.25;2388335;28;45525;-80
2022/08/06 09:55:53;;;;;;;;;0.00;0.00;;;;;22.65;30.35;102469.97;2391769;28;46346;-80
2022/08/06 09:57:03;;;;;;;;;0.00;0.00;;;;;22.66;31.71;102461.84;2393753;28;45263;-81
2022/08/06 09:58:25;;;;;;;;;1.00;0.00;;;;;22.68;31.30;102462.63;2381880;28;47318;-80
2022/08/06 09:59:47;;;;;;;;;0.00;0.00;;;;;22.69;30.68;102461.69;2384132;28;45261;-80
2022/08/06 10:01:13;;;;;;;;;0.00;0.00;;;;;22.70;30.60;102473.28;2378101;28;46877;-81
2022/08/06 10:02:23;;;;;;;;;0.00;0.00;;;;;22.67;29.85;102466.25;2389063;28;44816;-81
2022/08/06 10:03:39;;;;;;;;;0.00;0.00;;;;;22.66;29.68;102453.81;2383201;28;47085;-80
2022/08/06 10:04:49;;;;;;;;;0.00;0.00;;;;;22.69;30.46;102459.00;2390414;28;45255;-80
2022/08/06 10:06:08;;;;;;;;;0.25;0.25;;;;;22.67;30.35;102452.84;2385435;28;45450;-79
2022/08/06 10:07:30;;;;;;;;;0.00;0.00;;;;;22.71;30.11;102453.59;2387096;28;45281;-79
2022/08/06 10:08:43;;;;;;;;;0.00;0.00;;;;;22.73;30.56;102456.16;2393193;28;45345;-79
2022/08/06 10:09:56;;;;;;;;;0.00;0.00;;;;;22.74;30.44;102460.59;2388495;28;45190;-77
2022/08/06 10:11:07;;;;;;;;;0.50;0.00;;;;;22.73;29.08;102457.03;2389277;28;46302;-80
2022/08/06 10:12:21;;;;;;;;;0.00;0.00;;;;;22.75;29.87;102449.75;2383806;28;45368;-80
2022/08/06 10:13:33;;;;;;;;;2.00;0.75;;;;;22.77;30.32;102461.25;2382812;28;45454;-80
2022/08/06 10:14:43;;;;;;;;;0.00;0.00;;;;;22.79;29.48;102458.50;2383923;28;44676;-79
2022/08/06 10:15:56;;;;;;;;;0.00;0.00;;;;;22.82;29.48;102445.78;2385924;28;45503;-80
2022/08/06 10:17:19;;;;;;;;;0.00;0.00;;;;;22.88;28.89;102449.03;2393759;28;45299;-78
2022/08/06 10:18:29;;;;;;;;;0.00;0.00;;;;;22.90;29.47;102450.69;2383612;28;47121;-78
2022/08/06 10:19:42;;;;;;;;;0.50;0.00;;;;;22.87;27.96;102458.91;2386646;28;44759;-78
2022/08/06 10:21:06;;;;;;;;;0.75;0.00;;;;;22.89;30.20;102457.00;2389827;28;45659;-78
2022/08/06 10:22:18;;;;;;;;;1.50;0.00;;;;;22.93;29.95;102461.25;2385943;28;44732;-78
2022/08/06 10:23:38;;;;;;;;;0.00;0.00;;;;;22.95;27.33;102457.59;2393632;28;46147;-80
2022/08/06 10:24:51;;;;;;;;;0.00;0.00;;;;;22.97;28.25;102456.53;2391624;28;45531;-79
2022/08/06 10:26:04;;;;;;;;;1.00;0.00;;;;;23.01;29.13;102455.44;2391634;28;45211;-79
2022/08/06 10:27:25;;;;;;;;;0.00;0.00;;;;;23.03;28.96;102458.88;2392046;28;45460;-79
2022/08/06 10:28:37;;;;;;;;;0.00;0.00;;;;;23.10;28.53;102462.03;2393720;28;46283;-79
2022/08/06 10:29:58;;;;;;;;;0.00;0.00;;;;;23.12;29.59;102457.44;2390976;28;46149;-80
2022/08/06 10:31:10;;;;;;;;;0.00;0.00;;;;;23.17;29.71;102451.81;2384681;28;45464;-80
2022/08/06 10:32:37;;;;;;;;;0.00;0.00;;;;;23.23;29.90;102447.91;2393869;28;45379;-80
2022/08/06 10:33:59;;;;;;;;;0.00;0.00;;;;;23.28;29.63;102429.72;2383515;28;47263;-80
2022/08/06 10:35:11;;;;;;;;;1.00;0.50;;;;;23.33;29.80;102434.78;2378121;28;44762;-80
2022/08/06 10:36:26;;;;;;;;;0.50;0.50;;;;;23.37;29.83;102434.50;2386113;28;45212;-80
2022/08/06 10:37:41;;;;;;;;;0.00;0.00;;;;;23.42;29.72;102444.09;2392710;28;45527;-80
2022/08/06 10:38:55;;;;;;;;;0.00;0.00;;;;;23.44;29.16;102435.00;2393424;28;45248;-80
2022/08/06 10:40:07;;;;;;;;;0.00;0.00;;;;;23.46;28.94;102426.84;2393719;28;44590;-79
2022/08/06 10:41:18;;;;;;;;;0.25;0.25;;;;;23.47;29.10;102440.19;2391900;28;45488;-79
2022/08/06 10:42:29;;;;;;;;;0.75;0.75;;;;;23.53;29.48;102430.06;2389792;28;45472;-79
2022/08/06 10:43:41;;;;;;;;;0.50;0.00;;;;;23.55;28.86;102436.19;2393590;28;45419;-79
2022/08/06 10:44:52;;;;;;;;;0.00;0.00;;;;;23.57;28.94;102435.13;2393872;28;45427;-79
2022/08/06 10:46:04;;;;;;;;;0.25;0.25;;;;;23.57;27.84;102439.63;2393263;28;45425;-79
2022/08/06 10:47:15;;;;;;;;;4.25;1.00;;;;;23.52;28.21;102431.00;2385291;28;45417;-79
2022/08/06 10:48:26;;;;;;;;;1.00;0.00;;;;;23.54;28.53;102447.88;2386219;28;45642;-79
2022/08/06 10:49:37;;;;;;;;;1.00;1.00;;;;;23.54;29.02;102440.69;2393803;28;45332;-79
2022/08/06 10:50:48;;;;;;;;;1.00;1.00;;;;;23.56;29.48;102437.91;2393436;28;46242;-79
2022/08/06 10:51:59;;;;;;;;;1.00;1.00;;;;;23.58;29.19;102436.84;2391787;28;44831;-79
2022/08/06 10:53:11;;;;;;;;;1.00;1.00;;;;;23.59;28.95;102430.53;2392625;28;48168;-79
2022/08/06 10:54:22;;;;;;;;;0.00;0.00;;;;;23.64;29.14;102435.59;2393184;28;45520;-79
2022/08/06 10:55:32;;;;;;;;;0.00;0.00;;;;;23.58;27.46;102434.16;2378418;28;47949;-79
2022/08/06 10:56:45;;;;;;;;;0.00;0.00;;;;;23.56;27.99;102433.41;2383471;28;45180;-79
2022/08/06 10:57:58;;;;;;;;;0.00;0.00;;;;;23.51;27.69;102419.41;2383242;28;47252;-80
2022/08/06 10:59:12;;;;;;;;;2.25;0.75;;;;;23.49;28.13;102419.50;2383369;28;45582;-79
2022/08/06 11:00:22;;;;;;;;;1.00;1.00;;;;;23.48;27.69;102420.44;2384101;28;45455;-79
2022/08/06 11:01:44;;;;;;;;;0.00;0.00;;;;;23.51;28.61;102426.63;2389866;28;45152;-79
2022/08/06 11:03:08;;;;;;;;;1.25;1.25;;;;;23.55;27.39;102420.09;2386713;28;45437;-79
2022/08/06 11:04:33;;;;;;;;;1.50;1.00;;;;;23.55;27.12;102415.59;2386897;28;45403;-79
2022/08/06 11:05:54;;;;;;;;;2.00;1.00;;;;;23.54;28.20;102413.84;2391311;28;45433;-79
2022/08/06 11:07:11;;;;;;;;;2.00;2.00;;;;;23.57;27.20;102423.53;2390081;28;45464;-77
2022/08/06 11:08:35;;;;;;;;;1.00;1.00;;;;;23.57;28.23;102407.44;2386798;28;47156;-77
2022/08/06 11:09:57;;;;;;;;;3.00;1.00;;;;;23.60;28.25;102413.47;2391063;28;45514;-77
2022/08/06 11:11:38;;;;;;;;;2.00;1.50;;;;;23.64;28.52;102411.44;2387078;28;45496;-78